sensor_id;sensor_type;location;lat;lon;timestamp;P1;durP1;ratioP1;P2;durP2;ratioP2
17382;SDS011;8809;51.892;8.384;2022-07-06T00:01:05;0.93;;;0.80;;
17382;SDS011;8809;51.892;8.384;2022-07-06T00:03:50;1.85;;;0.70;;
17382;SDS011;8809;51.892;8.384;2022-07-06T00:06:17;0.93;;;0.70;;
17382;SDS011;8809;51.892;8.384;2022-07-06T00:08:45;1.00;;;0.70;;
17382;SDS011;8809;51.892;8.384;2022-07-06T00:11:13;1.25;;;0.80;;
17382;SDS011;8809;51.892;8.384;2022-07-06T00:13:44;1.67;;;0.88;;
17382;SDS011;8809;51.892;8.384;2022-07-06T00:16:11;1.52;;;1.00;;
17382;SDS011;8809;51.892;8.384;2022-07-06T00:18:39;1.15;;;0.80;;
17382;SDS011;8809;51.892;8.384;2022-07-06T00:21:06;1.88;;;1.02;;
17382;SDS011;8809;51.892;8.384;2022-07-06T00:23:33;1.55;;;0.88;;
17382;SDS011;8809;51.892;8.384;2022-07-06T00:26:00;1.58;;;0.80;;
17382;SDS011;8809;51.892;8.384;2022-07-06T00:28:29;1.25;;;0.90;;
17382;SDS011;8809;51.892;8.384;2022-07-06T00:30:56;1.33;;;0.80;;
17382;SDS011;8809;51.892;8.384;2022-07-06T00:36:35;0.95;;;0.80;;
17382;SDS011;8809;51.892;8.384;2022-07-06T00:39:02;0.80;;;0.80;;
17382;SDS011;8809;51.892;8.384;2022-07-06T00:41:29;1.20;;;0.88;;
17382;SDS011;8809;51.892;8.384;2022-07-06T00:43:58;1.33;;;0.90;;
17382;SDS011;8809;51.892;8.384;2022-07-06T00:46:26;1.10;;;1.00;;
17382;SDS011;8809;51.892;8.384;2022-07-06T00:48:55;1.15;;;0.90;;
17382;SDS011;8809;51.892;8.384;2022-07-06T00:51:25;0.82;;;0.82;;
17382;SDS011;8809;51.892;8.384;2022-07-06T00:53:58;1.15;;;0.82;;
17382;SDS011;8809;51.892;8.384;2022-07-06T00:56:28;1.52;;;1.20;;
17382;SDS011;8809;51.892;8.384;2022-07-06T00:59:00;1.73;;;0.77;;
17382;SDS011;8809;51.892;8.384;2022-07-06T01:01:29;1.40;;;1.20;;
17382;SDS011;8809;51.892;8.384;2022-07-06T01:03:56;1.08;;;0.90;;
17382;SDS011;8809;51.892;8.384;2022-07-06T01:06:26;1.73;;;1.00;;
17382;SDS011;8809;51.892;8.384;2022-07-06T01:08:54;1.15;;;1.02;;
17382;SDS011;8809;51.892;8.384;2022-07-06T01:11:23;1.25;;;1.08;;
17382;SDS011;8809;51.892;8.384;2022-07-06T01:13:51;1.40;;;1.27;;
17382;SDS011;8809;51.892;8.384;2022-07-06T01:16:20;0.95;;;0.82;;
17382;SDS011;8809;51.892;8.384;2022-07-06T01:18:50;1.00;;;0.90;;
17382;SDS011;8809;51.892;8.384;2022-07-06T01:21:18;1.25;;;1.15;;
17382;SDS011;8809;51.892;8.384;2022-07-06T01:23:46;1.75;;;1.00;;
17382;SDS011;8809;51.892;8.384;2022-07-06T01:26:14;1.17;;;1.00;;
17382;SDS011;8809;51.892;8.384;2022-07-06T01:28:43;1.15;;;0.90;;
17382;SDS011;8809;51.892;8.384;2022-07-06T01:31:17;2.22;;;1.20;;
17382;SDS011;8809;51.892;8.384;2022-07-06T01:33:48;1.38;;;1.10;;
17382;SDS011;8809;51.892;8.384;2022-07-06T01:36:15;1.10;;;1.00;;
17382;SDS011;8809;51.892;8.384;2022-07-06T01:38:44;1.75;;;1.10;;
17382;SDS011;8809;51.892;8.384;2022-07-06T01:41:12;1.35;;;1.10;;
17382;SDS011;8809;51.892;8.384;2022-07-06T01:43:42;1.83;;;1.20;;
17382;SDS011;8809;51.892;8.384;2022-07-06T01:46:09;1.25;;;1.15;;
17382;SDS011;8809;51.892;8.384;2022-07-06T01:48:36;1.88;;;1.20;;
17382;SDS011;8809;51.892;8.384;2022-07-06T01:51:03;1.00;;;1.00;;
17382;SDS011;8809;51.892;8.384;2022-07-06T01:53:30;1.17;;;1.05;;
17382;SDS011;8809;51.892;8.384;2022-07-06T01:55:59;1.23;;;1.00;;
17382;SDS011;8809;51.892;8.384;2022-07-06T01:58:26;1.20;;;1.10;;
17382;SDS011;8809;51.892;8.384;2022-07-06T02:00:53;1.75;;;1.50;;
17382;SDS011;8809;51.892;8.384;2022-07-06T02:03:22;1.63;;;1.23;;
17382;SDS011;8809;51.892;8.384;2022-07-06T02:05:50;1.83;;;1.48;;
17382;SDS011;8809;51.892;8.384;2022-07-06T02:08:17;1.55;;;1.27;;
17382;SDS011;8809;51.892;8.384;2022-07-06T02:10:44;1.60;;;1.40;;
17382;SDS011;8809;51.892;8.384;2022-07-06T02:13:12;1.50;;;1.40;;
17382;SDS011;8809;51.892;8.384;2022-07-06T02:15:39;1.58;;;1.48;;
17382;SDS011;8809;51.892;8.384;2022-07-06T02:18:06;1.20;;;1.10;;
17382;SDS011;8809;51.892;8.384;2022-07-06T02:20:36;1.40;;;1.30;;
17382;SDS011;8809;51.892;8.384;2022-07-06T02:23:03;2.20;;;1.60;;
17382;SDS011;8809;51.892;8.384;2022-07-06T02:25:30;3.03;;;1.48;;
17382;SDS011;8809;51.892;8.384;2022-07-06T02:27:57;1.90;;;1.30;;
17382;SDS011;8809;51.892;8.384;2022-07-06T02:30:26;1.70;;;1.40;;
17382;SDS011;8809;51.892;8.384;2022-07-06T02:32:54;1.42;;;1.20;;
17382;SDS011;8809;51.892;8.384;2022-07-06T02:35:21;2.50;;;1.60;;
17382;SDS011;8809;51.892;8.384;2022-07-06T02:37:49;1.92;;;1.52;;
17382;SDS011;8809;51.892;8.384;2022-07-06T02:40:16;1.48;;;1.38;;
17382;SDS011;8809;51.892;8.384;2022-07-06T02:42:46;1.73;;;1.40;;
17382;SDS011;8809;51.892;8.384;2022-07-06T02:45:13;2.15;;;1.63;;
17382;SDS011;8809;51.892;8.384;2022-07-06T02:47:41;2.08;;;1.73;;
17382;SDS011;8809;51.892;8.384;2022-07-06T02:50:09;1.70;;;1.20;;
17382;SDS011;8809;51.892;8.384;2022-07-06T02:52:36;1.45;;;1.35;;
17382;SDS011;8809;51.892;8.384;2022-07-06T02:55:04;2.35;;;1.65;;
17382;SDS011;8809;51.892;8.384;2022-07-06T02:57:31;1.98;;;1.35;;
17382;SDS011;8809;51.892;8.384;2022-07-06T03:00:13;2.00;;;1.65;;
17382;SDS011;8809;51.892;8.384;2022-07-06T03:02:42;2.20;;;1.50;;
17382;SDS011;8809;51.892;8.384;2022-07-06T03:05:09;1.60;;;1.50;;
17382;SDS011;8809;51.892;8.384;2022-07-06T03:07:36;2.47;;;1.60;;
17382;SDS011;8809;51.892;8.384;2022-07-06T03:10:09;1.30;;;1.20;;
17382;SDS011;8809;51.892;8.384;2022-07-06T03:12:38;1.27;;;1.17;;
17382;SDS011;8809;51.892;8.384;2022-07-06T03:15:07;1.90;;;1.30;;
17382;SDS011;8809;51.892;8.384;2022-07-06T03:17:35;1.55;;;1.38;;
17382;SDS011;8809;51.892;8.384;2022-07-06T03:20:10;1.30;;;1.20;;
17382;SDS011;8809;51.892;8.384;2022-07-06T03:22:40;3.17;;;1.35;;
17382;SDS011;8809;51.892;8.384;2022-07-06T03:25:07;2.15;;;1.55;;
17382;SDS011;8809;51.892;8.384;2022-07-06T03:27:35;1.50;;;1.40;;
17382;SDS011;8809;51.892;8.384;2022-07-06T03:30:08;2.30;;;1.73;;
17382;SDS011;8809;51.892;8.384;2022-07-06T03:32:38;3.05;;;1.70;;
17382;SDS011;8809;51.892;8.384;2022-07-06T03:35:06;2.03;;;1.42;;
17382;SDS011;8809;51.892;8.384;2022-07-06T03:37:34;2.05;;;1.42;;
17382;SDS011;8809;51.892;8.384;2022-07-06T03:40:03;2.97;;;1.50;;
17382;SDS011;8809;51.892;8.384;2022-07-06T03:42:40;2.15;;;1.40;;
17382;SDS011;8809;51.892;8.384;2022-07-06T03:45:08;1.98;;;1.67;;
17382;SDS011;8809;51.892;8.384;2022-07-06T03:47:36;3.38;;;1.60;;
17382;SDS011;8809;51.892;8.384;2022-07-06T03:50:14;3.55;;;2.17;;
17382;SDS011;8809;51.892;8.384;2022-07-06T03:52:42;1.92;;;1.70;;
17382;SDS011;8809;51.892;8.384;2022-07-06T03:55:09;2.78;;;1.95;;
17382;SDS011;8809;51.892;8.384;2022-07-06T03:57:39;1.63;;;1.48;;
17382;SDS011;8809;51.892;8.384;2022-07-06T04:00:09;3.25;;;1.70;;
17382;SDS011;8809;51.892;8.384;2022-07-06T04:02:39;1.42;;;1.33;;
17382;SDS011;8809;51.892;8.384;2022-07-06T04:05:07;2.50;;;1.60;;
17382;SDS011;8809;51.892;8.384;2022-07-06T04:07:36;2.05;;;1.50;;
17382;SDS011;8809;51.892;8.384;2022-07-06T04:10:11;1.20;;;1.10;;
17382;SDS011;8809;51.892;8.384;2022-07-06T04:12:40;1.63;;;1.50;;
17382;SDS011;8809;51.892;8.384;2022-07-06T04:15:08;3.45;;;1.70;;
17382;SDS011;8809;51.892;8.384;2022-07-06T04:17:36;1.35;;;1.25;;
17382;SDS011;8809;51.892;8.384;2022-07-06T04:20:18;1.77;;;1.48;;
17382;SDS011;8809;51.892;8.384;2022-07-06T04:22:47;2.03;;;1.58;;
17382;SDS011;8809;51.892;8.384;2022-07-06T04:25:15;1.42;;;1.27;;
17382;SDS011;8809;51.892;8.384;2022-07-06T04:27:42;1.38;;;1.27;;
17382;SDS011;8809;51.892;8.384;2022-07-06T04:30:10;2.45;;;1.60;;
17382;SDS011;8809;51.892;8.384;2022-07-06T04:32:39;2.22;;;1.52;;
17382;SDS011;8809;51.892;8.384;2022-07-06T04:35:09;2.10;;;1.65;;
17382;SDS011;8809;51.892;8.384;2022-07-06T04:37:36;2.65;;;1.67;;
17382;SDS011;8809;51.892;8.384;2022-07-06T04:40:13;2.88;;;1.70;;
17382;SDS011;8809;51.892;8.384;2022-07-06T04:42:40;2.55;;;1.88;;
17382;SDS011;8809;51.892;8.384;2022-07-06T04:45:08;2.53;;;1.80;;
17382;SDS011;8809;51.892;8.384;2022-07-06T04:47:36;2.55;;;1.70;;
17382;SDS011;8809;51.892;8.384;2022-07-06T04:50:09;2.60;;;1.55;;
17382;SDS011;8809;51.892;8.384;2022-07-06T04:52:39;1.90;;;1.70;;
17382;SDS011;8809;51.892;8.384;2022-07-06T04:55:06;2.75;;;1.50;;
17382;SDS011;8809;51.892;8.384;2022-07-06T04:57:35;3.97;;;1.77;;
17382;SDS011;8809;51.892;8.384;2022-07-06T05:00:14;2.60;;;1.65;;
17382;SDS011;8809;51.892;8.384;2022-07-06T05:02:44;2.50;;;2.03;;
17382;SDS011;8809;51.892;8.384;2022-07-06T05:05:11;2.17;;;1.58;;
17382;SDS011;8809;51.892;8.384;2022-07-06T05:07:38;3.40;;;1.90;;
17382;SDS011;8809;51.892;8.384;2022-07-06T05:10:13;2.08;;;1.50;;
17382;SDS011;8809;51.892;8.384;2022-07-06T05:12:42;3.25;;;1.80;;
17382;SDS011;8809;51.892;8.384;2022-07-06T05:15:09;2.92;;;1.70;;
17382;SDS011;8809;51.892;8.384;2022-07-06T05:17:36;1.90;;;1.45;;
17382;SDS011;8809;51.892;8.384;2022-07-06T05:20:09;2.40;;;1.67;;
17382;SDS011;8809;51.892;8.384;2022-07-06T05:22:41;2.28;;;1.50;;
17382;SDS011;8809;51.892;8.384;2022-07-06T05:25:08;2.75;;;1.70;;
17382;SDS011;8809;51.892;8.384;2022-07-06T05:27:35;1.70;;;1.50;;
17382;SDS011;8809;51.892;8.384;2022-07-06T05:30:10;2.08;;;1.65;;
17382;SDS011;8809;51.892;8.384;2022-07-06T05:32:40;1.98;;;1.33;;
17382;SDS011;8809;51.892;8.384;2022-07-06T05:35:10;1.98;;;1.73;;
17382;SDS011;8809;51.892;8.384;2022-07-06T05:37:38;1.98;;;1.42;;
17382;SDS011;8809;51.892;8.384;2022-07-06T05:40:10;5.05;;;1.70;;
17382;SDS011;8809;51.892;8.384;2022-07-06T05:42:40;4.13;;;2.05;;
17382;SDS011;8809;51.892;8.384;2022-07-06T05:45:11;2.85;;;1.55;;
17382;SDS011;8809;51.892;8.384;2022-07-06T05:47:38;2.50;;;1.50;;
17382;SDS011;8809;51.892;8.384;2022-07-06T05:50:23;1.25;;;1.10;;
17382;SDS011;8809;51.892;8.384;2022-07-06T05:52:57;2.22;;;1.30;;
17382;SDS011;8809;51.892;8.384;2022-07-06T05:55:25;2.35;;;1.50;;
17382;SDS011;8809;51.892;8.384;2022-07-06T05:57:52;2.47;;;1.58;;
17382;SDS011;8809;51.892;8.384;2022-07-06T06:00:22;1.90;;;1.50;;
17382;SDS011;8809;51.892;8.384;2022-07-06T06:02:51;2.05;;;1.20;;
17382;SDS011;8809;51.892;8.384;2022-07-06T06:05:19;2.17;;;1.17;;
17382;SDS011;8809;51.892;8.384;2022-07-06T06:07:47;3.00;;;1.38;;
17382;SDS011;8809;51.892;8.384;2022-07-06T06:10:16;3.47;;;1.70;;
17382;SDS011;8809;51.892;8.384;2022-07-06T06:12:44;1.88;;;1.20;;
17382;SDS011;8809;51.892;8.384;2022-07-06T06:15:12;1.52;;;1.33;;
17382;SDS011;8809;51.892;8.384;2022-07-06T06:17:41;1.27;;;1.17;;
17382;SDS011;8809;51.892;8.384;2022-07-06T06:20:10;2.75;;;1.42;;
17382;SDS011;8809;51.892;8.384;2022-07-06T06:22:47;5.13;;;1.58;;
17382;SDS011;8809;51.892;8.384;2022-07-06T06:25:18;2.35;;;1.60;;
17382;SDS011;8809;51.892;8.384;2022-07-06T06:27:46;2.55;;;1.38;;
17382;SDS011;8809;51.892;8.384;2022-07-06T06:30:14;2.65;;;1.48;;
17382;SDS011;8809;51.892;8.384;2022-07-06T06:32:42;2.60;;;1.25;;
17382;SDS011;8809;51.892;8.384;2022-07-06T06:35:09;3.05;;;1.40;;
17382;SDS011;8809;51.892;8.384;2022-07-06T06:37:40;2.33;;;1.38;;
17382;SDS011;8809;51.892;8.384;2022-07-06T06:40:10;1.73;;;1.30;;
17382;SDS011;8809;51.892;8.384;2022-07-06T06:42:40;2.15;;;1.30;;
17382;SDS011;8809;51.892;8.384;2022-07-06T06:45:08;3.08;;;1.40;;
17382;SDS011;8809;51.892;8.384;2022-07-06T06:47:37;2.33;;;1.38;;
17382;SDS011;8809;51.892;8.384;2022-07-06T06:50:15;1.40;;;1.27;;
17382;SDS011;8809;51.892;8.384;2022-07-06T06:52:42;4.45;;;1.75;;
17382;SDS011;8809;51.892;8.384;2022-07-06T06:55:10;2.42;;;1.38;;
17382;SDS011;8809;51.892;8.384;2022-07-06T06:57:37;2.85;;;1.40;;
17382;SDS011;8809;51.892;8.384;2022-07-06T07:00:08;2.45;;;1.20;;
17382;SDS011;8809;51.892;8.384;2022-07-06T07:02:40;2.40;;;1.38;;
17382;SDS011;8809;51.892;8.384;2022-07-06T07:05:07;2.05;;;1.38;;
17382;SDS011;8809;51.892;8.384;2022-07-06T07:07:36;1.30;;;1.00;;
17382;SDS011;8809;51.892;8.384;2022-07-06T07:10:10;1.90;;;1.00;;
17382;SDS011;8809;51.892;8.384;2022-07-06T07:12:43;4.00;;;1.70;;
17382;SDS011;8809;51.892;8.384;2022-07-06T07:15:13;2.30;;;1.33;;
17382;SDS011;8809;51.892;8.384;2022-07-06T07:17:41;4.38;;;1.52;;
17382;SDS011;8809;51.892;8.384;2022-07-06T07:20:14;2.33;;;1.50;;
17382;SDS011;8809;51.892;8.384;2022-07-06T07:22:43;3.20;;;1.30;;
17382;SDS011;8809;51.892;8.384;2022-07-06T07:25:10;2.80;;;1.30;;
17382;SDS011;8809;51.892;8.384;2022-07-06T07:27:37;1.95;;;1.20;;
17382;SDS011;8809;51.892;8.384;2022-07-06T07:30:10;2.33;;;1.48;;
17382;SDS011;8809;51.892;8.384;2022-07-06T07:32:40;3.55;;;1.48;;
17382;SDS011;8809;51.892;8.384;2022-07-06T07:35:07;2.38;;;1.33;;
17382;SDS011;8809;51.892;8.384;2022-07-06T07:37:35;2.97;;;1.40;;
17382;SDS011;8809;51.892;8.384;2022-07-06T07:40:10;3.63;;;1.38;;
17382;SDS011;8809;51.892;8.384;2022-07-06T07:42:39;2.25;;;1.33;;
17382;SDS011;8809;51.892;8.384;2022-07-06T07:45:10;1.60;;;1.00;;
17382;SDS011;8809;51.892;8.384;2022-07-06T07:47:39;2.42;;;1.40;;
17382;SDS011;8809;51.892;8.384;2022-07-06T07:50:09;1.67;;;1.33;;
17382;SDS011;8809;51.892;8.384;2022-07-06T07:52:38;1.70;;;1.30;;
17382;SDS011;8809;51.892;8.384;2022-07-06T07:55:05;1.23;;;1.13;;
17382;SDS011;8809;51.892;8.384;2022-07-06T07:57:34;2.45;;;1.50;;
17382;SDS011;8809;51.892;8.384;2022-07-06T08:02:40;3.08;;;1.35;;
17382;SDS011;8809;51.892;8.384;2022-07-06T08:05:08;2.97;;;1.55;;
17382;SDS011;8809;51.892;8.384;2022-07-06T08:07:38;1.98;;;1.33;;
17382;SDS011;8809;51.892;8.384;2022-07-06T08:10:13;2.53;;;1.30;;
17382;SDS011;8809;51.892;8.384;2022-07-06T08:12:44;4.60;;;1.23;;
17382;SDS011;8809;51.892;8.384;2022-07-06T08:15:11;1.92;;;1.10;;
17382;SDS011;8809;51.892;8.384;2022-07-06T08:17:38;2.95;;;1.60;;
17382;SDS011;8809;51.892;8.384;2022-07-06T08:20:08;2.47;;;1.08;;
17382;SDS011;8809;51.892;8.384;2022-07-06T08:22:41;2.38;;;1.00;;
17382;SDS011;8809;51.892;8.384;2022-07-06T08:25:09;1.75;;;1.00;;
17382;SDS011;8809;51.892;8.384;2022-07-06T08:27:37;2.35;;;0.80;;
17382;SDS011;8809;51.892;8.384;2022-07-06T08:30:10;1.80;;;0.90;;
17382;SDS011;8809;51.892;8.384;2022-07-06T08:32:41;0.85;;;0.60;;
17382;SDS011;8809;51.892;8.384;2022-07-06T08:35:09;1.10;;;0.68;;
17382;SDS011;8809;51.892;8.384;2022-07-06T08:37:38;1.85;;;0.52;;
17382;SDS011;8809;51.892;8.384;2022-07-06T08:40:10;2.80;;;1.00;;
17382;SDS011;8809;51.892;8.384;2022-07-06T08:42:40;1.10;;;0.70;;
17382;SDS011;8809;51.892;8.384;2022-07-06T08:45:13;0.82;;;0.70;;
17382;SDS011;8809;51.892;8.384;2022-07-06T08:47:41;1.27;;;0.65;;
17382;SDS011;8809;51.892;8.384;2022-07-06T08:50:11;1.17;;;0.70;;
17382;SDS011;8809;51.892;8.384;2022-07-06T08:52:40;1.88;;;0.57;;
17382;SDS011;8809;51.892;8.384;2022-07-06T08:55:07;1.35;;;0.80;;
17382;SDS011;8809;51.892;8.384;2022-07-06T08:57:38;1.58;;;0.70;;
17382;SDS011;8809;51.892;8.384;2022-07-06T09:00:10;1.75;;;0.60;;
17382;SDS011;8809;51.892;8.384;2022-07-06T09:02:41;0.90;;;0.60;;
17382;SDS011;8809;51.892;8.384;2022-07-06T09:05:09;1.55;;;0.77;;
17382;SDS011;8809;51.892;8.384;2022-07-06T09:07:40;1.92;;;1.08;;
17382;SDS011;8809;51.892;8.384;2022-07-06T09:10:11;0.52;;;0.52;;
17382;SDS011;8809;51.892;8.384;2022-07-06T09:12:40;0.88;;;0.50;;
17382;SDS011;8809;51.892;8.384;2022-07-06T09:15:07;1.42;;;0.77;;
17382;SDS011;8809;51.892;8.384;2022-07-06T09:17:37;1.00;;;0.60;;
17382;SDS011;8809;51.892;8.384;2022-07-06T09:20:14;1.55;;;0.80;;
17382;SDS011;8809;51.892;8.384;2022-07-06T09:22:41;0.82;;;0.70;;
17382;SDS011;8809;51.892;8.384;2022-07-06T09:25:10;1.95;;;0.70;;
17382;SDS011;8809;51.892;8.384;2022-07-06T09:27:39;1.20;;;0.80;;
17382;SDS011;8809;51.892;8.384;2022-07-06T09:30:10;1.77;;;0.90;;
17382;SDS011;8809;51.892;8.384;2022-07-06T09:32:41;2.78;;;0.90;;
17382;SDS011;8809;51.892;8.384;2022-07-06T09:35:19;3.20;;;1.00;;
17382;SDS011;8809;51.892;8.384;2022-07-06T09:37:47;1.33;;;0.80;;
17382;SDS011;8809;51.892;8.384;2022-07-06T09:40:26;1.90;;;0.77;;
17382;SDS011;8809;51.892;8.384;2022-07-06T09:43:09;1.30;;;0.70;;
17382;SDS011;8809;51.892;8.384;2022-07-06T09:45:38;1.73;;;0.70;;
17382;SDS011;8809;51.892;8.384;2022-07-06T09:48:07;1.65;;;0.68;;
17382;SDS011;8809;51.892;8.384;2022-07-06T09:50:41;3.00;;;0.85;;
17382;SDS011;8809;51.892;8.384;2022-07-06T09:53:10;2.08;;;0.90;;
17382;SDS011;8809;51.892;8.384;2022-07-06T09:55:38;2.83;;;1.00;;
17382;SDS011;8809;51.892;8.384;2022-07-06T09:58:09;2.05;;;0.93;;
17382;SDS011;8809;51.892;8.384;2022-07-06T10:00:37;1.52;;;0.93;;
17382;SDS011;8809;51.892;8.384;2022-07-06T10:03:04;1.70;;;0.80;;
17382;SDS011;8809;51.892;8.384;2022-07-06T10:05:31;1.60;;;0.88;;
17382;SDS011;8809;51.892;8.384;2022-07-06T10:08:00;1.25;;;0.65;;
17382;SDS011;8809;51.892;8.384;2022-07-06T10:10:31;0.70;;;0.70;;
17382;SDS011;8809;51.892;8.384;2022-07-06T10:12:59;0.95;;;0.73;;
17382;SDS011;8809;51.892;8.384;2022-07-06T10:15:27;1.67;;;0.70;;
17382;SDS011;8809;51.892;8.384;2022-07-06T10:17:57;1.00;;;0.70;;
17382;SDS011;8809;51.892;8.384;2022-07-06T10:20:27;1.95;;;0.90;;
17382;SDS011;8809;51.892;8.384;2022-07-06T10:22:55;1.30;;;0.60;;
17382;SDS011;8809;51.892;8.384;2022-07-06T10:25:26;0.63;;;0.60;;
17382;SDS011;8809;51.892;8.384;2022-07-06T10:27:54;0.85;;;0.60;;
17382;SDS011;8809;51.892;8.384;2022-07-06T10:30:22;0.75;;;0.68;;
17382;SDS011;8809;51.892;8.384;2022-07-06T10:32:51;1.02;;;0.60;;
17382;SDS011;8809;51.892;8.384;2022-07-06T10:35:21;2.25;;;0.60;;
17382;SDS011;8809;51.892;8.384;2022-07-06T10:38:02;1.73;;;0.70;;
17382;SDS011;8809;51.892;8.384;2022-07-06T10:40:36;1.02;;;0.70;;
17382;SDS011;8809;51.892;8.384;2022-07-06T10:43:30;1.33;;;0.82;;
17382;SDS011;8809;51.892;8.384;2022-07-06T10:46:10;2.28;;;0.70;;
17382;SDS011;8809;51.892;8.384;2022-07-06T10:48:39;0.70;;;0.50;;
17382;SDS011;8809;51.892;8.384;2022-07-06T10:51:06;1.15;;;0.80;;
17382;SDS011;8809;51.892;8.384;2022-07-06T10:53:35;1.30;;;0.70;;
17382;SDS011;8809;51.892;8.384;2022-07-06T10:56:05;1.20;;;0.50;;
17382;SDS011;8809;51.892;8.384;2022-07-06T10:58:40;1.27;;;0.70;;
17382;SDS011;8809;51.892;8.384;2022-07-06T11:01:16;3.70;;;0.52;;
17382;SDS011;8809;51.892;8.384;2022-07-06T11:03:44;0.95;;;0.60;;
17382;SDS011;8809;51.892;8.384;2022-07-06T11:06:13;1.17;;;0.50;;
17382;SDS011;8809;51.892;8.384;2022-07-06T11:08:51;2.05;;;0.80;;
17382;SDS011;8809;51.892;8.384;2022-07-06T11:11:23;2.97;;;0.80;;
17382;SDS011;8809;51.892;8.384;2022-07-06T11:13:55;1.88;;;0.60;;
17382;SDS011;8809;51.892;8.384;2022-07-06T11:16:25;1.83;;;0.60;;
17382;SDS011;8809;51.892;8.384;2022-07-06T11:19:00;1.15;;;0.68;;
17382;SDS011;8809;51.892;8.384;2022-07-06T11:21:34;0.93;;;0.52;;
17382;SDS011;8809;51.892;8.384;2022-07-06T11:24:11;0.52;;;0.52;;
17382;SDS011;8809;51.892;8.384;2022-07-06T11:26:41;0.45;;;0.32;;
17382;SDS011;8809;51.892;8.384;2022-07-06T11:29:10;0.47;;;0.40;;
17382;SDS011;8809;51.892;8.384;2022-07-06T11:31:38;0.90;;;0.60;;
17382;SDS011;8809;51.892;8.384;2022-07-06T11:34:06;0.65;;;0.55;;
17382;SDS011;8809;51.892;8.384;2022-07-06T11:36:34;1.50;;;0.60;;
17382;SDS011;8809;51.892;8.384;2022-07-06T11:39:03;1.33;;;0.60;;
17382;SDS011;8809;51.892;8.384;2022-07-06T11:41:32;1.00;;;0.60;;
17382;SDS011;8809;51.892;8.384;2022-07-06T11:44:01;1.17;;;0.50;;
17382;SDS011;8809;51.892;8.384;2022-07-06T11:46:28;2.22;;;0.70;;
17382;SDS011;8809;51.892;8.384;2022-07-06T11:48:57;2.45;;;0.60;;
17382;SDS011;8809;51.892;8.384;2022-07-06T11:51:25;1.67;;;0.68;;
17382;SDS011;8809;51.892;8.384;2022-07-06T11:53:55;0.65;;;0.60;;
17382;SDS011;8809;51.892;8.384;2022-07-06T11:56:33;0.68;;;0.40;;
17382;SDS011;8809;51.892;8.384;2022-07-06T11:59:02;0.77;;;0.43;;
17382;SDS011;8809;51.892;8.384;2022-07-06T12:01:30;1.17;;;0.50;;
17382;SDS011;8809;51.892;8.384;2022-07-06T12:03:57;0.47;;;0.40;;
17382;SDS011;8809;51.892;8.384;2022-07-06T12:06:26;0.95;;;0.45;;
17382;SDS011;8809;51.892;8.384;2022-07-06T12:08:55;0.50;;;0.50;;
17382;SDS011;8809;51.892;8.384;2022-07-06T12:11:23;0.60;;;0.57;;
17382;SDS011;8809;51.892;8.384;2022-07-06T12:13:53;1.17;;;0.60;;
17382;SDS011;8809;51.892;8.384;2022-07-06T12:16:28;5.82;;;0.90;;
17382;SDS011;8809;51.892;8.384;2022-07-06T12:18:59;0.82;;;0.50;;
17382;SDS011;8809;51.892;8.384;2022-07-06T12:21:28;0.45;;;0.43;;
17382;SDS011;8809;51.892;8.384;2022-07-06T12:23:57;1.02;;;0.73;;
17382;SDS011;8809;51.892;8.384;2022-07-06T12:26:25;1.00;;;0.52;;
17382;SDS011;8809;51.892;8.384;2022-07-06T12:29:01;0.73;;;0.50;;
17382;SDS011;8809;51.892;8.384;2022-07-06T12:31:33;0.63;;;0.43;;
17382;SDS011;8809;51.892;8.384;2022-07-06T12:34:04;0.60;;;0.50;;
17382;SDS011;8809;51.892;8.384;2022-07-06T12:36:41;0.50;;;0.40;;
17382;SDS011;8809;51.892;8.384;2022-07-06T12:39:10;2.88;;;0.70;;
17382;SDS011;8809;51.892;8.384;2022-07-06T12:41:41;2.33;;;0.70;;
17382;SDS011;8809;51.892;8.384;2022-07-06T12:44:13;1.42;;;0.57;;
17382;SDS011;8809;51.892;8.384;2022-07-06T12:46:45;0.82;;;0.60;;
17382;SDS011;8809;51.892;8.384;2022-07-06T12:49:15;0.90;;;0.57;;
17382;SDS011;8809;51.892;8.384;2022-07-06T12:54:36;0.63;;;0.52;;
17382;SDS011;8809;51.892;8.384;2022-07-06T12:57:09;0.70;;;0.52;;
17382;SDS011;8809;51.892;8.384;2022-07-06T12:59:39;2.30;;;0.60;;
17382;SDS011;8809;51.892;8.384;2022-07-06T13:02:16;0.95;;;0.40;;
17382;SDS011;8809;51.892;8.384;2022-07-06T13:04:49;0.50;;;0.50;;
17382;SDS011;8809;51.892;8.384;2022-07-06T13:07:22;0.40;;;0.40;;
17382;SDS011;8809;51.892;8.384;2022-07-06T13:09:50;0.65;;;0.40;;
17382;SDS011;8809;51.892;8.384;2022-07-06T13:12:17;2.97;;;0.68;;
17382;SDS011;8809;51.892;8.384;2022-07-06T13:14:45;0.73;;;0.50;;
17382;SDS011;8809;51.892;8.384;2022-07-06T13:17:13;0.85;;;0.57;;
17382;SDS011;8809;51.892;8.384;2022-07-06T13:19:41;1.23;;;0.45;;
17382;SDS011;8809;51.892;8.384;2022-07-06T13:22:08;0.65;;;0.50;;
17382;SDS011;8809;51.892;8.384;2022-07-06T13:24:35;1.58;;;0.40;;
17382;SDS011;8809;51.892;8.384;2022-07-06T13:27:02;1.48;;;0.60;;
17382;SDS011;8809;51.892;8.384;2022-07-06T13:29:29;1.67;;;0.68;;
17382;SDS011;8809;51.892;8.384;2022-07-06T13:31:57;2.05;;;0.50;;
17382;SDS011;8809;51.892;8.384;2022-07-06T13:34:28;0.98;;;0.50;;
17382;SDS011;8809;51.892;8.384;2022-07-06T13:36:55;0.70;;;0.60;;
17382;SDS011;8809;51.892;8.384;2022-07-06T13:39:23;1.40;;;0.60;;
17382;SDS011;8809;51.892;8.384;2022-07-06T13:41:52;0.90;;;0.60;;
17382;SDS011;8809;51.892;8.384;2022-07-06T13:44:19;0.82;;;0.65;;
17382;SDS011;8809;51.892;8.384;2022-07-06T13:46:48;0.98;;;0.43;;
17382;SDS011;8809;51.892;8.384;2022-07-06T13:49:15;2.38;;;0.70;;
17382;SDS011;8809;51.892;8.384;2022-07-06T13:51:44;1.23;;;0.50;;
17382;SDS011;8809;51.892;8.384;2022-07-06T13:54:11;1.30;;;0.50;;
17382;SDS011;8809;51.892;8.384;2022-07-06T13:56:38;2.15;;;0.60;;
17382;SDS011;8809;51.892;8.384;2022-07-06T13:59:06;1.38;;;0.60;;
17382;SDS011;8809;51.892;8.384;2022-07-06T14:01:33;1.02;;;0.43;;
17382;SDS011;8809;51.892;8.384;2022-07-06T14:04:00;0.90;;;0.43;;
17382;SDS011;8809;51.892;8.384;2022-07-06T14:06:27;0.70;;;0.57;;
17382;SDS011;8809;51.892;8.384;2022-07-06T14:08:56;1.08;;;0.55;;
17382;SDS011;8809;51.892;8.384;2022-07-06T14:11:23;2.65;;;0.60;;
17382;SDS011;8809;51.892;8.384;2022-07-06T14:13:50;0.65;;;0.47;;
17382;SDS011;8809;51.892;8.384;2022-07-06T14:16:17;0.98;;;0.40;;
17382;SDS011;8809;51.892;8.384;2022-07-06T14:18:44;0.80;;;0.40;;
17382;SDS011;8809;51.892;8.384;2022-07-06T14:21:11;0.75;;;0.50;;
17382;SDS011;8809;51.892;8.384;2022-07-06T14:23:38;3.45;;;0.70;;
17382;SDS011;8809;51.892;8.384;2022-07-06T14:26:06;0.75;;;0.50;;
17382;SDS011;8809;51.892;8.384;2022-07-06T14:28:33;0.50;;;0.32;;
17382;SDS011;8809;51.892;8.384;2022-07-06T14:31:03;1.17;;;0.35;;
17382;SDS011;8809;51.892;8.384;2022-07-06T14:33:30;0.63;;;0.32;;
17382;SDS011;8809;51.892;8.384;2022-07-06T14:35:58;0.40;;;0.40;;
17382;SDS011;8809;51.892;8.384;2022-07-06T14:38:25;0.68;;;0.43;;
17382;SDS011;8809;51.892;8.384;2022-07-06T14:40:52;0.75;;;0.50;;
17382;SDS011;8809;51.892;8.384;2022-07-06T14:43:21;1.30;;;0.45;;
17382;SDS011;8809;51.892;8.384;2022-07-06T14:45:49;1.05;;;0.40;;
17382;SDS011;8809;51.892;8.384;2022-07-06T14:48:16;1.55;;;0.50;;
17382;SDS011;8809;51.892;8.384;2022-07-06T14:50:43;2.03;;;0.50;;
17382;SDS011;8809;51.892;8.384;2022-07-06T14:53:10;0.85;;;0.52;;
17382;SDS011;8809;51.892;8.384;2022-07-06T14:55:38;1.25;;;0.50;;
17382;SDS011;8809;51.892;8.384;2022-07-06T14:58:05;1.00;;;0.75;;
17382;SDS011;8809;51.892;8.384;2022-07-06T15:00:33;0.60;;;0.40;;
17382;SDS011;8809;51.892;8.384;2022-07-06T15:03:00;1.30;;;0.43;;
17382;SDS011;8809;51.892;8.384;2022-07-06T15:05:27;0.88;;;0.45;;
17382;SDS011;8809;51.892;8.384;2022-07-06T15:07:55;0.68;;;0.43;;
17382;SDS011;8809;51.892;8.384;2022-07-06T15:10:21;1.25;;;0.70;;
17382;SDS011;8809;51.892;8.384;2022-07-06T15:12:49;1.58;;;0.70;;
17382;SDS011;8809;51.892;8.384;2022-07-06T15:15:16;2.22;;;0.57;;
17382;SDS011;8809;51.892;8.384;2022-07-06T15:17:44;1.30;;;0.60;;
17382;SDS011;8809;51.892;8.384;2022-07-06T15:20:13;1.08;;;0.50;;
17382;SDS011;8809;51.892;8.384;2022-07-06T15:22:42;1.60;;;0.75;;